Time;durP1;ratioP1;P1;durP2;ratioP2;P2;SDS_P1;SDS_P2;PMS_P1;PMS_P2;Temp;Humidity;BMP_temperature;BMP_pressure;BME280_temperature;BME280_humidity;BME280_pressure;Samples;Min_cycle;Max_cycle;Signal;HPM_P1;HPM_P2
2022/08/21 00:00:24;;;;;;;52.33;26.07;;;;;;;;;;6222254;28;20145;-60
2022/08/21 00:03:38;;;;;;;47.03;23.52;;;;;;;;;;6224389;28;20052;-60
2022/08/21 00:06:39;;;;;;;53.77;26.27;;;;;;;;;;6224586;28;20085;-60
2022/08/21 00:09:40;;;;;;;58.27;25.70;;;;;;;;;;6221701;28;20203;-60
2022/08/21 00:12:42;;;;;;;54.58;27.73;;;;;;;;;;6227248;28;20052;-61
2022/08/21 00:15:43;;;;;;;52.25;27.05;;;;;;;;;;6220089;28;20053;-60
2022/08/21 00:18:44;;;;;;;51.92;26.73;;;;;;;;;;6221496;28;20163;-59
2022/08/21 00:21:45;;;;;;;61.87;28.93;;;;;;;;;;6221839;28;20507;-60
2022/08/21 00:24:45;;;;;;;56.60;27.20;;;;;;;;;;6219540;28;20932;-59
2022/08/21 00:27:46;;;;;;;49.17;26.47;;;;;;;;;;6220649;28;20046;-60
2022/08/21 00:30:47;;;;;;;52.37;25.63;;;;;;;;;;6222885;28;20037;-60
2022/08/21 00:33:47;;;;;;;53.03;26.60;;;;;;;;;;6221735;28;20045;-60
2022/08/21 00:36:48;;;;;;;56.50;27.40;;;;;;;;;;6219163;28;20077;-56
2022/08/21 00:39:49;;;;;;;48.73;26.17;;;;;;;;;;6222620;28;20061;-58
2022/08/21 00:42:50;;;;;;;46.80;26.13;;;;;;;;;;6220293;28;20060;-59
2022/08/21 00:45:52;;;;;;;55.43;27.43;;;;;;;;;;6220984;28;20310;-60
2022/08/21 00:48:53;;;;;;;49.28;25.88;;;;;;;;;;6221540;28;20049;-60
2022/08/21 00:51:57;;;;;;;52.07;26.77;;;;;;;;;;6222889;28;20159;-60
2022/08/21 00:54:59;;;;;;;51.72;27.27;;;;;;;;;;6222986;28;20601;-60
2022/08/21 00:58:02;;;;;;;50.55;26.60;;;;;;;;;;6219665;28;20079;-60
2022/08/21 01:01:04;;;;;;;56.33;28.25;;;;;;;;;;6222643;28;20049;-60
2022/08/21 01:04:05;;;;;;;54.78;25.63;;;;;;;;;;6221269;28;20052;-60
2022/08/21 01:07:06;;;;;;;56.53;27.27;;;;;;;;;;6216895;28;20961;-60
2022/08/21 01:10:08;;;;;;;55.58;28.65;;;;;;;;;;6216543;28;20046;-60
2022/08/21 01:13:11;;;;;;;54.28;26.55;;;;;;;;;;6218715;28;20148;-59
2022/08/21 01:16:15;;;;;;;49.25;27.08;;;;;;;;;;6218081;28;20054;-60
2022/08/21 01:19:18;;;;;;;57.30;28.65;;;;;;;;;;6215985;28;20061;-59
2022/08/21 01:22:19;;;;;;;50.45;27.50;;;;;;;;;;6215909;28;20133;-60
2022/08/21 01:25:20;;;;;;;54.20;28.40;;;;;;;;;;6219365;28;20048;-60
2022/08/21 01:28:21;;;;;;;56.10;28.77;;;;;;;;;;6217755;28;20044;-59
2022/08/21 01:31:24;;;;;;;58.30;29.88;;;;;;;;;;6228795;28;20073;-59
2022/08/21 01:34:28;;;;;;;60.95;30.35;;;;;;;;;;6236132;28;20145;-59
2022/08/21 01:37:28;;;;;;;62.53;30.73;;;;;;;;;;6236269;28;21493;-58
2022/08/21 01:40:29;;;;;;;58.53;29.73;;;;;;;;;;6226263;28;20539;-59
2022/08/21 01:43:30;;;;;;;57.27;29.80;;;;;;;;;;6218047;28;20140;-59
2022/08/21 01:46:30;;;;;;;64.77;29.43;;;;;;;;;;6215552;28;20046;-59
2022/08/21 01:49:31;;;;;;;55.87;28.00;;;;;;;;;;6217568;28;20045;-59
2022/08/21 01:52:32;;;;;;;57.60;29.03;;;;;;;;;;6216831;28;20054;-59
2022/08/21 01:55:33;;;;;;;56.30;27.03;;;;;;;;;;6229015;28;20090;-60
2022/08/21 01:58:33;;;;;;;59.13;29.47;;;;;;;;;;6221935;28;20411;-59
2022/08/21 02:01:34;;;;;;;52.80;28.23;;;;;;;;;;6226068;28;20046;-59
2022/08/21 02:04:35;;;;;;;57.10;27.25;;;;;;;;;;6220045;28;20057;-60
2022/08/21 02:07:38;;;;;;;50.53;26.43;;;;;;;;;;6219769;28;20072;-59
2022/08/21 02:10:40;;;;;;;53.53;26.90;;;;;;;;;;6220845;28;20084;-59
2022/08/21 02:13:42;;;;;;;51.50;27.27;;;;;;;;;;6224263;28;20488;-58
2022/08/21 02:16:44;;;;;;;61.67;31.02;;;;;;;;;;6221504;28;20189;-57
2022/08/21 02:19:44;;;;;;;;;;;;;;;;;;6215927;28;20048;-60
2022/08/21 02:22:45;;;;;;;64.30;30.88;;;;;;;;;;6220502;28;20015;-60
2022/08/21 02:25:45;;;;;;;60.77;30.03;;;;;;;;;;6224288;28;20054;-59
2022/08/21 02:28:46;;;;;;;60.53;30.27;;;;;;;;;;6222117;28;20052;-59
2022/08/21 02:31:46;;;;;;;52.10;26.70;;;;;;;;;;6224396;28;20034;-60
2022/08/21 02:34:48;;;;;;;50.20;26.03;;;;;;;;;;6221277;28;20046;-60
2022/08/21 02:37:52;;;;;;;49.03;25.88;;;;;;;;;;6219483;28;20045;-60
2022/08/21 02:40:54;;;;;;;47.30;23.15;;;;;;;;;;6219849;28;20153;-60
2022/08/21 02:43:55;;;;;;;46.00;23.27;;;;;;;;;;6224761;28;20037;-60
2022/08/21 02:46:55;;;;;;;47.27;24.93;;;;;;;;;;6224227;28;20046;-59
2022/08/21 02:49:56;;;;;;;48.30;24.17;;;;;;;;;;6225657;28;20835;-59
2022/08/21 02:52:57;;;;;;;44.30;22.20;;;;;;;;;;6228748;28;20042;-58
2022/08/21 02:56:00;;;;;;;50.47;23.55;;;;;;;;;;6226225;28;20104;-61
2022/08/21 02:59:01;;;;;;;41.72;21.77;;;;;;;;;;6222064;28;20088;-60
2022/08/21 03:02:02;;;;;;;45.50;21.97;;;;;;;;;;6223545;28;20030;-60
2022/08/21 03:05:05;;;;;;;44.33;22.40;;;;;;;;;;6227520;28;20057;-59
2022/08/21 03:08:09;;;;;;;43.55;21.90;;;;;;;;;;6222271;28;20092;-59
2022/08/21 03:11:09;;;;;;;42.95;22.25;;;;;;;;;;6221229;28;20073;-60
2022/08/21 03:14:10;;;;;;;40.20;21.33;;;;;;;;;;6224531;28;20113;-59
2022/08/21 03:17:10;;;;;;;40.87;21.40;;;;;;;;;;6225372;28;20042;-60
2022/08/21 03:20:19;;;;;;;43.00;23.43;;;;;;;;;;6223718;28;20041;-60
2022/08/21 03:23:20;;;;;;;48.05;24.27;;;;;;;;;;6227867;28;20034;-59
2022/08/21 03:26:21;;;;;;;42.57;22.23;;;;;;;;;;6222395;28;20051;-60
2022/08/21 03:29:22;;;;;;;48.53;24.08;;;;;;;;;;6233251;28;20046;-60
2022/08/21 03:32:23;;;;;;;44.43;22.23;;;;;;;;;;6233156;28;20077;-59
2022/08/21 03:35:23;;;;;;;39.43;21.90;;;;;;;;;;6234577;28;20060;-60
2022/08/21 03:38:25;;;;;;;51.63;23.90;;;;;;;;;;6226595;28;20820;-61
2022/08/21 03:41:26;;;;;;;46.38;23.00;;;;;;;;;;6222911;28;20070;-60
2022/08/21 03:44:28;;;;;;;47.80;23.30;;;;;;;;;;6222940;28;20044;-60
2022/08/21 03:47:29;;;;;;;47.83;23.05;;;;;;;;;;6226860;28;20080;-59
2022/08/21 03:50:34;;;;;;;47.90;23.63;;;;;;;;;;6224398;28;20052;-60
2022/08/21 03:53:36;;;;;;;49.10;24.83;;;;;;;;;;6224801;28;20525;-60
2022/08/21 03:56:36;;;;;;;46.67;23.63;;;;;;;;;;6224281;28;20072;-60
2022/08/21 03:59:38;;;;;;;50.27;25.80;;;;;;;;;;6223262;28;20485;-60
2022/08/21 04:02:39;;;;;;;47.28;24.08;;;;;;;;;;6222356;28;20739;-60
2022/08/21 04:05:40;;;;;;;50.60;24.17;;;;;;;;;;6225573;28;20144;-59
2022/08/21 04:08:42;;;;;;;47.57;22.70;;;;;;;;;;6222620;28;20061;-59
2022/08/21 04:11:45;;;;;;;51.00;23.83;;;;;;;;;;6223013;28;20069;-60
2022/08/21 04:14:46;;;;;;;46.22;22.80;;;;;;;;;;6227163;28;20073;-60
2022/08/21 04:17:48;;;;;;;50.50;23.27;;;;;;;;;;6225008;28;20049;-60
2022/08/21 04:20:51;;;;;;;48.72;24.60;;;;;;;;;;6222486;28;20049;-60
2022/08/21 04:23:54;;;;;;;51.75;23.77;;;;;;;;;;6227391;28;20104;-60
2022/08/21 04:26:55;;;;;;;49.97;25.02;;;;;;;;;;6222263;28;20076;-60
2022/08/21 04:29:55;;;;;;;50.80;25.37;;;;;;;;;;6231835;28;20053;-59
2022/08/21 04:32:57;;;;;;;49.37;24.43;;;;;;;;;;6221087;28;21271;-61
2022/08/21 04:35:58;;;;;;;49.47;24.50;;;;;;;;;;6221556;28;20148;-60
2022/08/21 04:38:58;;;;;;;45.07;23.23;;;;;;;;;;6222882;28;20079;-60
2022/08/21 04:41:59;;;;;;;51.63;25.60;;;;;;;;;;6223382;28;20080;-60
2022/08/21 04:45:00;;;;;;;45.70;23.37;;;;;;;;;;6222537;28;20046;-60
2022/08/21 04:48:03;;;;;;;47.55;25.10;;;;;;;;;;6222741;28;20144;-60
2022/08/21 04:51:31;;;;;;;48.05;23.95;;;;;;;;;;6218178;28;20065;-60
2022/08/21 04:54:32;;;;;;;48.53;24.25;;;;;;;;;;6217667;28;20069;-60
2022/08/21 04:57:34;;;;;;;48.30;25.03;;;;;;;;;;6219321;28;20044;-61
2022/08/21 05:00:35;;;;;;;51.75;25.05;;;;;;;;;;6221530;28;20069;-60
2022/08/21 05:03:37;;;;;;;50.20;24.70;;;;;;;;;;6220376;28;20579;-60
2022/08/21 05:06:40;;;;;;;48.70;25.40;;;;;;;;;;6223106;28;20058;-60
2022/08/21 05:09:41;;;;;;;46.83;24.90;;;;;;;;;;6222018;28;20053;-60
2022/08/21 05:12:43;;;;;;;43.07;23.87;;;;;;;;;;6217267;28;20129;-60
2022/08/21 05:15:43;;;;;;;;;;;;;;;;;;6222967;28;20555;-60
2022/08/21 05:18:44;;;;;;;43.53;23.15;;;;;;;;;;6217290;28;20288;-60
2022/08/21 05:21:47;;;;;;;48.50;22.93;;;;;;;;;;6221058;28;20045;-60
2022/08/21 05:24:47;;;;;;;51.08;24.52;;;;;;;;;;6217650;28;20236;-60
2022/08/21 05:27:48;;;;;;;54.33;25.37;;;;;;;;;;6221054;28;20042;-60
2022/08/21 05:30:49;;;;;;;51.83;24.87;;;;;;;;;;6218704;28;20139;-60
2022/08/21 05:33:50;;;;;;;52.17;24.35;;;;;;;;;;6218163;28;20048;-60
2022/08/21 05:36:51;;;;;;;50.97;24.92;;;;;;;;;;6227523;28;20148;-61
2022/08/21 05:39:51;;;;;;;55.37;25.27;;;;;;;;;;6230521;28;20095;-59
2022/08/21 05:42:53;;;;;;;54.33;25.80;;;;;;;;;;6235447;28;20129;-60
2022/08/21 05:45:54;;;;;;;61.20;28.70;;;;;;;;;;6238011;28;20060;-58
2022/08/21 05:48:56;;;;;;;;;;;;;;;;;;6238109;28;20555;-60
2022/08/21 05:51:56;;;;;;;53.72;25.85;;;;;;;;;;6236781;28;19921;-60
2022/08/21 05:54:57;;;;;;;53.67;26.93;;;;;;;;;;6237136;28;20053;-59
2022/08/21 05:57:57;;;;;;;64.27;27.50;;;;;;;;;;6230179;28;20164;-61
2022/08/21 06:00:59;;;;;;;59.43;27.30;;;;;;;;;;6234102;28;20076;-61
2022/08/21 06:04:00;;;;;;;60.05;28.50;;;;;;;;;;6230545;28;20528;-60
2022/08/21 06:07:00;;;;;;;60.77;29.07;;;;;;;;;;6236381;28;20045;-61
2022/08/21 06:10:01;;;;;;;66.07;29.17;;;;;;;;;;6235843;28;20059;-60
2022/08/21 06:13:01;;;;;;;62.50;29.57;;;;;;;;;;6231437;28;20080;-60
2022/08/21 06:16:12;;;;;;;63.13;31.17;;;;;;;;;;6234900;28;20141;-61
2022/08/21 06:19:13;;;;;;;63.38;29.83;;;;;;;;;;6235450;28;20140;-60
2022/08/21 06:22:13;;;;;;;64.67;30.27;;;;;;;;;;6229098;28;20071;-60
2022/08/21 06:25:14;;;;;;;60.60;29.37;;;;;;;;;;6230013;28;20140;-61
2022/08/21 06:28:14;;;;;;;68.17;28.50;;;;;;;;;;6230855;28;20546;-59
2022/08/21 06:31:19;;;;;;;68.40;29.23;;;;;;;;;;6222055;28;20046;-61
2022/08/21 06:34:20;;;;;;;58.90;29.13;;;;;;;;;;6236641;28;20037;-62
2022/08/21 06:37:20;;;;;;;64.07;31.17;;;;;;;;;;6236505;28;20037;-60
2022/08/21 06:40:21;;;;;;;66.17;30.80;;;;;;;;;;6232106;28;20054;-61
2022/08/21 06:43:22;;;;;;;62.65;28.50;;;;;;;;;;6237441;28;20132;-61
2022/08/21 06:46:24;;;;;;;62.43;28.93;;;;;;;;;;6233105;28;20057;-60
2022/08/21 06:49:25;;;;;;;62.92;30.50;;;;;;;;;;6225139;28;20041;-61
2022/08/21 06:52:26;;;;;;;67.23;31.47;;;;;;;;;;6227895;28;20092;-58
2022/08/21 06:55:27;;;;;;;66.10;31.27;;;;;;;;;;6239107;28;20129;-60
2022/08/21 06:58:28;;;;;;;74.97;31.63;;;;;;;;;;6236519;28;20114;-58
2022/08/21 07:01:29;;;;;;;50.10;24.25;;;;;;;;;;6220559;28;20468;-60
2022/08/21 07:04:29;;;;;;;39.97;20.77;;;;;;;;;;6224476;28;20057;-58
2022/08/21 07:07:30;;;;;;;41.47;20.73;;;;;;;;;;6226055;28;20069;-59
2022/08/21 07:10:30;;;;;;;41.83;20.93;;;;;;;;;;6229952;28;20058;-60
2022/08/21 07:13:31;;;;;;;42.83;21.13;;;;;;;;;;6234372;28;20495;-61
2022/08/21 07:16:32;;;;;;;36.90;18.83;;;;;;;;;;6237227;28;20082;-60
2022/08/21 07:19:32;;;;;;;33.57;16.20;;;;;;;;;;6231751;28;20508;-62
2022/08/21 07:22:35;;;;;;;27.60;13.90;;;;;;;;;;6231991;28;20056;-60
2022/08/21 07:25:36;;;;;;;18.35;8.93;;;;;;;;;;6239953;28;20147;-60
2022/08/21 07:28:37;;;;;;;13.07;6.53;;;;;;;;;;6236667;28;20055;-60
2022/08/21 07:31:38;;;;;;;9.20;4.37;;;;;;;;;;6238561;28;20095;-60
2022/08/21 07:34:38;;;;;;;10.77;3.90;;;;;;;;;;6238895;28;20128;-59
2022/08/21 07:37:39;;;;;;;9.30;3.83;;;;;;;;;;6225097;28;20038;-59
2022/08/21 07:40:39;;;;;;;7.40;3.03;;;;;;;;;;6232809;28;20080;-60
2022/08/21 07:43:40;;;;;;;8.70;2.97;;;;;;;;;;6232692;28;20203;-59
2022/08/21 07:46:40;;;;;;;8.73;3.30;;;;;;;;;;6235555;28;20050;-60
2022/08/21 07:49:41;;;;;;;8.00;2.97;;;;;;;;;;6228252;28;20060;-60
2022/08/21 07:52:42;;;;;;;6.90;2.80;;;;;;;;;;6232743;28;20050;-61
2022/08/21 07:55:43;;;;;;;8.15;3.28;;;;;;;;;;6238497;28;20065;-60
2022/08/21 07:58:44;;;;;;;6.43;3.37;;;;;;;;;;6235557;28;20037;-62
2022/08/21 08:01:44;;;;;;;7.97;3.30;;;;;;;;;;6238408;28;20069;-60
2022/08/21 08:04:45;;;;;;;8.60;3.23;;;;;;;;;;6239403;28;20583;-60
2022/08/21 08:07:45;;;;;;;6.70;3.10;;;;;;;;;;6223551;28;20488;-61
2022/08/21 08:10:46;;;;;;;6.67;2.93;;;;;;;;;;6239139;28;20056;-60
2022/08/21 08:13:50;;;;;;;14.40;3.17;;;;;;;;;;6240165;28;20595;-59
2022/08/21 08:16:50;;;;;;;6.75;2.50;;;;;;;;;;6242449;28;20060;-59
2022/08/21 08:19:51;;;;;;;5.70;2.50;;;;;;;;;;6231925;28;20068;-60
2022/08/21 08:22:53;;;;;;;5.28;2.28;;;;;;;;;;6227121;28;20049;-60
2022/08/21 08:25:54;;;;;;;7.15;2.10;;;;;;;;;;6241519;28;20072;-60
2022/08/21 08:28:54;;;;;;;5.73;1.80;;;;;;;;;;6232094;28;20484;-60
2022/08/21 08:31:55;;;;;;;2.83;1.30;;;;;;;;;;6237883;28;20051;-60
2022/08/21 08:34:56;;;;;;;3.27;1.60;;;;;;;;;;6233099;28;20033;-59
2022/08/21 08:37:58;;;;;;;6.22;2.17;;;;;;;;;;6236127;28;20453;-60
2022/08/21 08:41:07;;;;;;;;;;;;;;;;;;6233522;28;20119;-61
2022/08/21 08:44:08;;;;;;;3.50;1.00;;;;;;;;;;6235118;28;20763;-58
2022/08/21 08:47:12;;;;;;;3.10;1.10;;;;;;;;;;6220040;28;20115;-59
2022/08/21 08:50:25;;;;;;;7.15;1.20;;;;;;;;;;6229700;28;20108;-58
2022/08/21 08:54:02;;;;;;;9.70;1.30;;;;;;;;;;6226421;28;20046;-59
2022/08/21 08:57:09;;;;;;;3.55;1.20;;;;;;;;;;6202200;28;20091;-61
2022/08/21 09:00:13;;;;;;;3.05;1.30;;;;;;;;;;6238068;28;20048;-62
2022/08/21 09:03:15;;;;;;;4.50;1.40;;;;;;;;;;6233376;28;20559;-60
2022/08/21 09:06:21;;;;;;;;;;;;;;;;;;6233335;28;20079;-62
2022/08/21 09:09:47;;;;;;;5.07;1.23;;;;;;;;;;6226043;28;19964;-60
2022/08/21 09:13:15;;;;;;;7.93;1.20;;;;;;;;;;6231674;28;20052;-58
2022/08/21 09:16:34;;;;;;;3.65;1.30;;;;;;;;;;6238941;28;20054;-61
2022/08/21 09:19:47;;;;;;;4.93;1.58;;;;;;;;;;6235655;28;20042;-60
2022/08/21 09:23:03;;;;;;;4.30;1.70;;;;;;;;;;6237560;28;20088;-60
2022/08/21 09:26:11;;;;;;;3.47;1.40;;;;;;;;;;6234631;28;20060;-59
2022/08/21 09:29:12;;;;;;;7.05;1.90;;;;;;;;;;6236560;28;20196;-59
2022/08/21 09:32:20;;;;;;;7.20;1.93;;;;;;;;;;6237015;28;20050;-60
2022/08/21 09:35:23;;;;;;;4.35;1.88;;;;;;;;;;6239436;28;20136;-60
2022/08/21 09:38:36;;;;;;;8.52;2.60;;;;;;;;;;6238761;28;20053;-61
2022/08/21 09:41:38;;;;;;;8.88;2.50;;;;;;;;;;6228693;28;20167;-60
2022/08/21 09:44:43;;;;;;;;;;;;;;;;;;6236790;28;20145;-60
2022/08/21 09:47:45;;;;;;;7.95;2.10;;;;;;;;;;6235477;28;19933;-60
2022/08/21 09:50:47;;;;;;;6.80;3.10;;;;;;;;;;6236792;28;20049;-59
2022/08/21 09:53:52;;;;;;;6.88;2.10;;;;;;;;;;6229042;28;20155;-59
2022/08/21 10:00:32;;;;;;;8.57;3.13;;;;;;;;;;6230944;28;20543;-59
2022/08/21 10:03:33;;;;;;;6.85;2.60;;;;;;;;;;6230799;28;20041;-60
2022/08/21 10:06:34;;;;;;;9.43;2.27;;;;;;;;;;6230611;28;20056;-60
2022/08/21 10:09:35;;;;;;;;;;;;;;;;;;6230596;28;20050;-61
2022/08/21 10:13:06;;;;;;;7.35;3.08;;;;;;;;;;6236542;28;19925;-60
2022/08/21 10:16:20;;;;;;;9.05;3.50;;;;;;;;;;6224493;28;20076;-61
2022/08/21 10:20:05;;;;;;;7.55;3.30;;;;;;;;;;6235587;28;20092;-60
2022/08/21 10:23:26;;;;;;;7.45;3.50;;;;;;;;;;6233264;28;20045;-60
2022/08/21 10:26:45;;;;;;;6.93;3.67;;;;;;;;;;6232505;28;20492;-61
2022/08/21 10:29:57;;;;;;;9.48;5.00;;;;;;;;;;6237120;28;20437;-59
2022/08/21 10:33:16;;;;;;;9.32;4.80;;;;;;;;;;6231846;28;20053;-61
2022/08/21 10:36:21;;;;;;;10.00;4.13;;;;;;;;;;6231717;28;20038;-60
2022/08/21 10:39:34;;;;;;;8.18;4.15;;;;;;;;;;6238093;28;20080;-58
2022/08/21 10:42:50;;;;;;;6.97;3.40;;;;;;;;;;6238105;28;20061;-60
2022/08/21 10:45:55;;;;;;;8.48;3.25;;;;;;;;;;6225837;28;20074;-60
2022/08/21 10:49:05;;;;;;;6.72;3.20;;;;;;;;;;6227515;28;20095;-59
2022/08/21 10:52:17;;;;;;;7.88;3.20;;;;;;;;;;6225945;28;20121;-60
2022/08/21 10:55:21;;;;;;;7.53;3.40;;;;;;;;;;6229101;28;20082;-59
2022/08/21 10:58:30;;;;;;;6.88;3.38;;;;;;;;;;6221143;28;21017;-60
2022/08/21 11:01:33;;;;;;;6.00;3.08;;;;;;;;;;6232851;28;20445;-59
2022/08/21 11:04:43;;;;;;;12.40;3.22;;;;;;;;;;6238929;28;20050;-60
2022/08/21 11:07:49;;;;;;;6.15;3.53;;;;;;;;;;6229161;28;20042;-60
2022/08/21 11:11:00;;;;;;;7.88;3.78;;;;;;;;;;6240137;28;20037;-59
2022/08/21 11:14:16;;;;;;;6.18;3.85;;;;;;;;;;6231662;28;20053;-60
2022/08/21 11:17:29;;;;;;;7.38;4.07;;;;;;;;;;6229070;28;20140;-60
2022/08/21 11:20:42;;;;;;;6.88;4.50;;;;;;;;;;6234525;28;20421;-60
2022/08/21 11:23:52;;;;;;;8.27;4.20;;;;;;;;;;6240769;28;20085;-59
2022/08/21 11:27:14;;;;;;;7.03;4.07;;;;;;;;;;6237090;28;20054;-60
2022/08/21 11:30:15;;;;;;;7.80;4.20;;;;;;;;;;6231465;28;20144;-59
2022/08/21 11:33:29;;;;;;;11.38;4.80;;;;;;;;;;6240250;28;20041;-60
2022/08/21 11:36:55;;;;;;;9.00;5.47;;;;;;;;;;6229213;28;20180;-59
2022/08/21 11:40:00;;;;;;;7.72;5.10;;;;;;;;;;6230654;28;20042;-59
2022/08/21 11:43:16;;;;;;;9.15;5.25;;;;;;;;;;6229216;28;20215;-58
2022/08/21 11:46:43;;;;;;;7.85;4.75;;;;;;;;;;6236738;28;20118;-58
2022/08/21 11:50:00;;;;;;;9.35;5.28;;;;;;;;;;6236538;28;20148;-59
2022/08/21 11:53:50;;;;;;;9.05;5.38;;;;;;;;;;6234524;28;20141;-59
2022/08/21 11:56:57;;;;;;;7.70;5.05;;;;;;;;;;6234358;28;20612;-59
2022/08/21 12:00:08;;;;;;;7.85;5.10;;;;;;;;;;6238521;28;20068;-60
2022/08/21 12:03:32;;;;;;;7.35;4.43;;;;;;;;;;6236820;28;20501;-60
2022/08/21 12:06:37;;;;;;;6.03;4.15;;;;;;;;;;6223923;28;20125;-60
2022/08/21 12:09:38;;;;;;;7.18;4.72;;;;;;;;;;6236171;28;20049;-60
2022/08/21 12:12:41;;;;;;;8.43;4.80;;;;;;;;;;6235867;28;20544;-59
2022/08/21 12:15:41;;;;;;;6.60;4.90;;;;;;;;;;6233403;28;20046;-60
2022/08/21 12:18:43;;;;;;;5.47;4.10;;;;;;;;;;6232953;28;20038;-60
2022/08/21 12:22:03;;;;;;;8.93;4.75;;;;;;;;;;6242545;28;20151;-60
2022/08/21 12:25:11;;;;;;;7.97;4.00;;;;;;;;;;6233202;28;20045;-59
2022/08/21 12:28:15;;;;;;;7.85;4.30;;;;;;;;;;6231970;28;20442;-59
2022/08/21 12:31:18;;;;;;;5.95;4.10;;;;;;;;;;6233802;28;20049;-61
2022/08/21 12:34:22;;;;;;;6.85;3.95;;;;;;;;;;6235866;28;20135;-60
2022/08/21 12:37:47;;;;;;;7.75;4.25;;;;;;;;;;6235382;28;20610;-59
2022/08/21 12:41:12;;;;;;;6.35;4.28;;;;;;;;;;6237737;28;20045;-61
2022/08/21 12:44:17;;;;;;;6.93;4.80;;;;;;;;;;6237740;28;20073;-60
2022/08/21 12:47:30;;;;;;;7.60;4.40;;;;;;;;;;6234580;28;20184;-59
2022/08/21 12:51:00;;;;;;;6.97;4.90;;;;;;;;;;6232888;28;20492;-60
2022/08/21 12:54:01;;;;;;;6.07;4.40;;;;;;;;;;6232925;28;20049;-58
2022/08/21 12:57:05;;;;;;;5.57;4.10;;;;;;;;;;6227021;28;20683;-60
2022/08/21 13:00:12;;;;;;;7.30;5.30;;;;;;;;;;6225478;28;20535;-59
2022/08/21 13:03:14;;;;;;;6.90;5.50;;;;;;;;;;6234229;28;20045;-59
2022/08/21 13:06:18;;;;;;;8.77;6.63;;;;;;;;;;6226734;28;20054;-59
2022/08/21 13:09:25;;;;;;;10.50;7.10;;;;;;;;;;6234066;28;20045;-59
2022/08/21 13:12:28;;;;;;;9.05;6.90;;;;;;;;;;6240265;28;20065;-58
2022/08/21 13:15:31;;;;;;;8.65;6.30;;;;;;;;;;6221341;28;20140;-60
2022/08/21 13:18:35;;;;;;;9.50;7.28;;;;;;;;;;6220152;28;20097;-59
2022/08/21 13:21:41;;;;;;;9.60;7.47;;;;;;;;;;6227324;28;20069;-60
2022/08/21 13:24:42;;;;;;;9.45;7.10;;;;;;;;;;6236596;28;20076;-58
2022/08/21 13:27:47;;;;;;;11.63;8.80;;;;;;;;;;6239755;28;20048;-59
2022/08/21 13:30:52;;;;;;;11.45;7.93;;;;;;;;;;6224616;28;20404;-60
2022/08/21 13:33:54;;;;;;;12.45;7.90;;;;;;;;;;6230610;28;20517;-60
2022/08/21 13:37:01;;;;;;;10.30;7.47;;;;;;;;;;6230547;28;20152;-59
2022/08/21 13:40:02;;;;;;;9.82;7.47;;;;;;;;;;6236569;28;20041;-61
2022/08/21 13:43:03;;;;;;;11.30;7.43;;;;;;;;;;6227579;28;20108;-59
2022/08/21 13:46:11;;;;;;;9.20;6.80;;;;;;;;;;6233630;28;20541;-57
2022/08/21 13:49:17;;;;;;;11.63;7.40;;;;;;;;;;6229373;28;20045;-57
2022/08/21 13:52:21;;;;;;;10.93;7.70;;;;;;;;;;6229297;28;20559;-59
2022/08/21 13:55:22;;;;;;;10.55;7.13;;;;;;;;;;6222190;28;20072;-59
2022/08/21 13:58:43;;;;;;;11.77;8.10;;;;;;;;;;6228281;28;20048;-61
2022/08/21 14:02:00;;;;;;;14.18;7.45;;;;;;;;;;6227016;28;20050;-56
2022/08/21 14:05:02;;;;;;;15.63;9.32;;;;;;;;;;6221732;28;20079;-55
2022/08/21 14:08:06;;;;;;;;;;;;;;;;;;6227081;28;21102;-56
2022/08/21 14:11:11;;;;;;;19.70;10.50;;;;;;;;;;6226776;28;19994;-54
2022/08/21 14:14:45;;;;;;;16.75;10.18;;;;;;;;;;6225666;28;20053;-58
2022/08/21 14:17:46;;;;;;;18.77;10.55;;;;;;;;;;6198893;28;20037;-54
2022/08/21 14:20:46;;;;;;;17.43;11.27;;;;;;;;;;6226492;28;20045;-57
2022/08/21 14:23:47;;;;;;;17.57;10.30;;;;;;;;;;6223150;28;20132;-59
2022/08/21 14:27:05;;;;;;;19.37;11.33;;;;;;;;;;6223309;28;20052;-55
2022/08/21 14:30:16;;;;;;;17.30;10.52;;;;;;;;;;6222930;28;20099;-59
2022/08/21 14:33:24;;;;;;;20.45;10.73;;;;;;;;;;6223470;28;20083;-56
2022/08/21 14:36:25;;;;;;;17.77;10.20;;;;;;;;;;6225350;28;20057;-61
2022/08/21 14:39:25;;;;;;;19.38;10.45;;;;;;;;;;6224521;28;20044;-60
2022/08/21 14:42:26;;;;;;;19.77;10.98;;;;;;;;;;6225694;28;20049;-59
2022/08/21 14:45:30;;;;;;;18.73;10.75;;;;;;;;;;6218351;28;20073;-59
2022/08/21 14:48:30;;;;;;;21.02;11.48;;;;;;;;;;6223105;28;20061;-58
2022/08/21 14:51:31;;;;;;;28.63;14.50;;;;;;;;;;6226210;28;20141;-59
2022/08/21 14:54:32;;;;;;;26.13;14.32;;;;;;;;;;6227219;28;20504;-60
2022/08/21 14:57:34;;;;;;;25.48;14.05;;;;;;;;;;6226982;28;21126;-59
2022/08/21 15:00:35;;;;;;;23.73;13.10;;;;;;;;;;6225582;28;20050;-59
2022/08/21 15:03:36;;;;;;;23.07;12.80;;;;;;;;;;6227573;28;20155;-59
2022/08/21 15:06:37;;;;;;;24.27;13.60;;;;;;;;;;6225879;28;20053;-60
2022/08/21 15:09:38;;;;;;;21.77;12.13;;;;;;;;;;6221057;28;20396;-60
2022/08/21 15:12:39;;;;;;;21.33;12.57;;;;;;;;;;6226533;28;20104;-60
2022/08/21 15:15:43;;;;;;;22.93;12.33;;;;;;;;;;6226028;28;20420;-58
2022/08/21 15:18:44;;;;;;;21.23;11.93;;;;;;;;;;6226695;28;20045;-58
2022/08/21 15:21:44;;;;;;;19.00;11.30;;;;;;;;;;6228685;28;20072;-59
2022/08/21 15:24:45;;;;;;;19.17;10.57;;;;;;;;;;6225784;28;20525;-60
2022/08/21 15:27:45;;;;;;;17.80;9.45;;;;;;;;;;6226638;28;20056;-59
2022/08/21 15:30:47;;;;;;;16.80;9.90;;;;;;;;;;6226261;28;20136;-59
2022/08/21 15:33:47;;;;;;;18.55;10.55;;;;;;;;;;6225785;28;20128;-59
2022/08/21 15:36:48;;;;;;;19.48;10.45;;;;;;;;;;6227475;28;20123;-59
2022/08/21 15:39:50;;;;;;;25.15;10.98;;;;;;;;;;6221164;28;20037;-59
2022/08/21 15:42:55;;;;;;;22.45;11.40;;;;;;;;;;6223133;28;20107;-58
2022/08/21 15:46:00;;;;;;;22.73;11.32;;;;;;;;;;6226963;28;20136;-60
2022/08/21 15:49:01;;;;;;;20.65;11.32;;;;;;;;;;6225408;28;20065;-58
2022/08/21 15:52:02;;;;;;;20.83;10.38;;;;;;;;;;6228411;28;20622;-59
2022/08/21 15:55:04;;;;;;;18.47;9.93;;;;;;;;;;6218303;28;20058;-59
2022/08/21 15:58:06;;;;;;;27.30;12.02;;;;;;;;;;6219287;28;20059;-60
2022/08/21 16:01:07;;;;;;;25.65;12.30;;;;;;;;;;6219161;28;20876;-60
2022/08/21 16:04:08;;;;;;;22.80;11.18;;;;;;;;;;6220743;28;20057;-59
2022/08/21 16:07:09;;;;;;;21.83;10.98;;;;;;;;;;6222111;28;20068;-58
2022/08/21 16:10:11;;;;;;;22.40;10.90;;;;;;;;;;6228802;28;20045;-59
2022/08/21 16:13:23;;;;;;;22.38;10.60;;;;;;;;;;6226515;28;20041;-59
2022/08/21 16:16:24;;;;;;;25.42;11.35;;;;;;;;;;6226072;28;20096;-61
2022/08/21 16:19:27;;;;;;;30.47;12.87;;;;;;;;;;6224453;28;20061;-60
2022/08/21 16:22:28;;;;;;;23.65;11.85;;;;;;;;;;6226773;28;20114;-61
2022/08/21 16:25:29;;;;;;;29.05;11.85;;;;;;;;;;6221669;28;20033;-60
2022/08/21 16:28:31;;;;;;;26.30;13.60;;;;;;;;;;6224455;28;20072;-60
2022/08/21 16:31:32;;;;;;;27.60;13.07;;;;;;;;;;6224520;28;20049;-59
2022/08/21 16:34:34;;;;;;;30.63;14.20;;;;;;;;;;6227651;28;20079;-60
2022/08/21 16:37:34;;;;;;;28.83;12.90;;;;;;;;;;6226770;28;20085;-64
2022/08/21 16:40:35;;;;;;;22.65;12.00;;;;;;;;;;6224682;28;20053;-66
2022/08/21 16:43:37;;;;;;;27.15;12.57;;;;;;;;;;6225459;28;20046;-58
2022/08/21 16:46:40;;;;;;;24.45;11.30;;;;;;;;;;6224779;28;20053;-59
2022/08/21 16:49:40;;;;;;;20.80;10.18;;;;;;;;;;6225816;28;20053;-59
2022/08/21 16:52:41;;;;;;;23.08;10.02;;;;;;;;;;6225397;28;20674;-60
2022/08/21 16:55:42;;;;;;;18.77;8.85;;;;;;;;;;6220050;28;20048;-60
2022/08/21 16:58:46;;;;;;;16.35;8.77;;;;;;;;;;6226289;28;20136;-60
2022/08/21 17:01:47;;;;;;;13.35;6.57;;;;;;;;;;6220517;28;20042;-58
2022/08/21 17:04:48;;;;;;;15.02;7.07;;;;;;;;;;6224981;28;20400;-60
2022/08/21 17:07:49;;;;;;;11.43;6.47;;;;;;;;;;6225285;28;20061;-59
2022/08/21 17:10:50;;;;;;;10.97;5.87;;;;;;;;;;6223123;28;20045;-60
2022/08/21 17:13:51;;;;;;;13.23;6.10;;;;;;;;;;6227491;28;20148;-59
2022/08/21 17:16:54;;;;;;;10.82;5.53;;;;;;;;;;6229420;28;20038;-59
2022/08/21 17:19:54;;;;;;;10.15;5.25;;;;;;;;;;6224628;28;20042;-59
2022/08/21 17:22:56;;;;;;;10.18;5.90;;;;;;;;;;6226321;28;20042;-60
2022/08/21 17:25:56;;;;;;;10.20;5.83;;;;;;;;;;6225119;28;20045;-58
2022/08/21 17:28:57;;;;;;;10.57;5.53;;;;;;;;;;6223288;28;20397;-57
2022/08/21 17:31:58;;;;;;;9.57;5.95;;;;;;;;;;6222117;28;20455;-59
2022/08/21 17:34:59;;;;;;;10.38;5.82;;;;;;;;;;6226820;28;20049;-60
2022/08/21 17:38:00;;;;;;;10.82;6.57;;;;;;;;;;6228938;28;20048;-59
2022/08/21 17:41:00;;;;;;;12.10;6.27;;;;;;;;;;6225895;28;20562;-59
2022/08/21 17:44:08;;;;;;;14.98;6.25;;;;;;;;;;6226939;28;20045;-60
2022/08/21 17:47:09;;;;;;;13.50;6.45;;;;;;;;;;6227694;28;20168;-60
2022/08/21 17:50:11;;;;;;;9.80;5.72;;;;;;;;;;6224119;28;20049;-59
2022/08/21 17:53:12;;;;;;;12.40;5.60;;;;;;;;;;6227086;28;20207;-60
2022/08/21 17:56:14;;;;;;;13.25;6.35;;;;;;;;;;6227618;28;20057;-60
2022/08/21 17:59:15;;;;;;;10.57;5.80;;;;;;;;;;6227879;28;20250;-59
2022/08/21 18:02:16;;;;;;;13.40;5.28;;;;;;;;;;6224233;28;20046;-60
2022/08/21 18:05:16;;;;;;;10.63;5.50;;;;;;;;;;6224509;28;20091;-60
2022/08/21 18:08:17;;;;;;;10.82;6.47;;;;;;;;;;6227394;28;20053;-60